sensor_id;sensor_type;location;lat;lon;timestamp;temperature;humidity
26954;DHT22;14508;50.924;11.600;2022-07-19T00:01:04;17.30;66.20
26954;DHT22;14508;50.924;11.600;2022-07-19T00:03:31;17.30;66.80
26954;DHT22;14508;50.924;11.600;2022-07-19T00:05:57;17.20;67.60
26954;DHT22;14508;50.924;11.600;2022-07-19T00:08:24;17.20;68.40
26954;DHT22;14508;50.924;11.600;2022-07-19T00:10:51;17.20;69.00
26954;DHT22;14508;50.924;11.600;2022-07-19T00:13:19;17.10;69.70
26954;DHT22;14508;50.924;11.600;2022-07-19T00:15:46;17.10;70.30
26954;DHT22;14508;50.924;11.600;2022-07-19T00:18:15;17.00;71.00
26954;DHT22;14508;50.924;11.600;2022-07-19T00:20:41;17.00;71.70
26954;DHT22;14508;50.924;11.600;2022-07-19T00:23:08;17.00;72.30
26954;DHT22;14508;50.924;11.600;2022-07-19T00:25:35;17.00;73.10
26954;DHT22;14508;50.924;11.600;2022-07-19T00:28:02;16.90;73.80
26954;DHT22;14508;50.924;11.600;2022-07-19T00:30:30;16.90;74.30
26954;DHT22;14508;50.924;11.600;2022-07-19T00:32:56;16.80;75.20
26954;DHT22;14508;50.924;11.600;2022-07-19T00:35:23;16.80;76.10
26954;DHT22;14508;50.924;11.600;2022-07-19T00:37:49;16.70;77.00
26954;DHT22;14508;50.924;11.600;2022-07-19T00:40:20;16.70;78.00
26954;DHT22;14508;50.924;11.600;2022-07-19T00:42:48;16.70;78.90
26954;DHT22;14508;50.924;11.600;2022-07-19T00:45:14;16.60;79.70
26954;DHT22;14508;50.924;11.600;2022-07-19T00:47:43;16.60;80.40
26954;DHT22;14508;50.924;11.600;2022-07-19T00:50:09;16.60;81.10
26954;DHT22;14508;50.924;11.600;2022-07-19T00:52:37;16.50;81.90
26954;DHT22;14508;50.924;11.600;2022-07-19T00:55:06;16.50;82.60
26954;DHT22;14508;50.924;11.600;2022-07-19T00:57:34;16.50;83.80
26954;DHT22;14508;50.924;11.600;2022-07-19T01:00:05;16.40;84.90
26954;DHT22;14508;50.924;11.600;2022-07-19T01:02:32;16.40;85.80
26954;DHT22;14508;50.924;11.600;2022-07-19T01:05:00;16.40;86.70
26954;DHT22;14508;50.924;11.600;2022-07-19T01:07:27;16.30;87.50
26954;DHT22;14508;50.924;11.600;2022-07-19T01:09:54;16.30;88.20
26954;DHT22;14508;50.924;11.600;2022-07-19T01:12:21;16.30;89.30
26954;DHT22;14508;50.924;11.600;2022-07-19T01:14:48;16.30;90.10
26954;DHT22;14508;50.924;11.600;2022-07-19T01:17:15;16.20;90.30
26954;DHT22;14508;50.924;11.600;2022-07-19T01:19:42;16.20;90.70
26954;DHT22;14508;50.924;11.600;2022-07-19T01:22:10;16.20;91.20
26954;DHT22;14508;50.924;11.600;2022-07-19T01:24:37;16.20;91.70
26954;DHT22;14508;50.924;11.600;2022-07-19T01:27:04;16.10;92.00
26954;DHT22;14508;50.924;11.600;2022-07-19T01:29:31;16.10;92.50
26954;DHT22;14508;50.924;11.600;2022-07-19T01:31:58;16.00;93.00
26954;DHT22;14508;50.924;11.600;2022-07-19T01:34:24;16.00;93.50
26954;DHT22;14508;50.924;11.600;2022-07-19T01:36:51;16.00;93.80
26954;DHT22;14508;50.924;11.600;2022-07-19T01:39:19;15.90;94.20
26954;DHT22;14508;50.924;11.600;2022-07-19T01:41:46;16.00;94.60
26954;DHT22;14508;50.924;11.600;2022-07-19T01:44:13;15.90;95.00
26954;DHT22;14508;50.924;11.600;2022-07-19T01:46:39;15.90;95.30
26954;DHT22;14508;50.924;11.600;2022-07-19T01:49:06;15.80;95.70
26954;DHT22;14508;50.924;11.600;2022-07-19T01:51:33;15.80;96.00
26954;DHT22;14508;50.924;11.600;2022-07-19T01:54:00;15.80;96.30
26954;DHT22;14508;50.924;11.600;2022-07-19T01:56:28;15.70;96.60
26954;DHT22;14508;50.924;11.600;2022-07-19T01:58:54;15.70;97.00
26954;DHT22;14508;50.924;11.600;2022-07-19T02:01:21;15.70;97.40
26954;DHT22;14508;50.924;11.600;2022-07-19T02:03:47;15.60;97.80
26954;DHT22;14508;50.924;11.600;2022-07-19T02:06:14;15.60;98.20
26954;DHT22;14508;50.924;11.600;2022-07-19T02:08:42;15.60;98.50
26954;DHT22;14508;50.924;11.600;2022-07-19T02:11:08;15.60;98.80
26954;DHT22;14508;50.924;11.600;2022-07-19T02:13:54;15.60;99.10
26954;DHT22;14508;50.924;11.600;2022-07-19T02:16:21;15.50;99.30
26954;DHT22;14508;50.924;11.600;2022-07-19T02:18:47;15.50;99.60
26954;DHT22;14508;50.924;11.600;2022-07-19T02:21:14;15.50;99.80
26954;DHT22;14508;50.924;11.600;2022-07-19T02:23:41;15.50;99.90
26954;DHT22;14508;50.924;11.600;2022-07-19T02:26:07;15.40;99.90
26954;DHT22;14508;50.924;11.600;2022-07-19T02:28:34;15.40;99.90
26954;DHT22;14508;50.924;11.600;2022-07-19T02:31:02;15.40;99.90
26954;DHT22;14508;50.924;11.600;2022-07-19T02:33:29;15.40;99.90
26954;DHT22;14508;50.924;11.600;2022-07-19T02:35:56;15.30;99.90
26954;DHT22;14508;50.924;11.600;2022-07-19T02:38:23;15.30;99.90
26954;DHT22;14508;50.924;11.600;2022-07-19T02:40:49;15.30;99.90
26954;DHT22;14508;50.924;11.600;2022-07-19T02:43:16;15.30;99.90
26954;DHT22;14508;50.924;11.600;2022-07-19T02:45:43;15.20;99.90
26954;DHT22;14508;50.924;11.600;2022-07-19T02:48:11;15.20;99.90
26954;DHT22;14508;50.924;11.600;2022-07-19T02:50:38;15.20;99.90
26954;DHT22;14508;50.924;11.600;2022-07-19T02:53:04;15.20;99.90
26954;DHT22;14508;50.924;11.600;2022-07-19T02:55:31;15.10;99.90
26954;DHT22;14508;50.924;11.600;2022-07-19T03:00:32;15.10;99.90
26954;DHT22;14508;50.924;11.600;2022-07-19T03:02:59;15.00;99.90
26954;DHT22;14508;50.924;11.600;2022-07-19T03:05:48;15.00;99.90
26954;DHT22;14508;50.924;11.600;2022-07-19T03:08:16;15.00;99.90
26954;DHT22;14508;50.924;11.600;2022-07-19T03:10:42;15.00;99.90
26954;DHT22;14508;50.924;11.600;2022-07-19T03:13:09;14.90;99.90
26954;DHT22;14508;50.924;11.600;2022-07-19T03:15:36;14.90;99.90
26954;DHT22;14508;50.924;11.600;2022-07-19T03:18:04;14.90;99.90
26954;DHT22;14508;50.924;11.600;2022-07-19T03:20:31;14.90;99.90
26954;DHT22;14508;50.924;11.600;2022-07-19T03:22:59;14.90;99.90
26954;DHT22;14508;50.924;11.600;2022-07-19T03:25:25;14.90;99.90
26954;DHT22;14508;50.924;11.600;2022-07-19T03:27:52;14.90;99.90
26954;DHT22;14508;50.924;11.600;2022-07-19T03:30:19;14.80;99.90
26954;DHT22;14508;50.924;11.600;2022-07-19T03:32:46;14.80;99.90
26954;DHT22;14508;50.924;11.600;2022-07-19T03:35:13;14.80;99.90
26954;DHT22;14508;50.924;11.600;2022-07-19T03:37:39;14.80;99.90
26954;DHT22;14508;50.924;11.600;2022-07-19T03:40:09;14.80;99.90
26954;DHT22;14508;50.924;11.600;2022-07-19T03:42:36;14.80;99.90
26954;DHT22;14508;50.924;11.600;2022-07-19T03:45:03;14.80;99.90
26954;DHT22;14508;50.924;11.600;2022-07-19T03:47:30;14.80;99.90
26954;DHT22;14508;50.924;11.600;2022-07-19T03:49:57;14.80;99.90
26954;DHT22;14508;50.924;11.600;2022-07-19T03:52:24;14.80;99.90
26954;DHT22;14508;50.924;11.600;2022-07-19T03:54:51;14.80;99.90
26954;DHT22;14508;50.924;11.600;2022-07-19T03:57:19;14.70;99.90
26954;DHT22;14508;50.924;11.600;2022-07-19T03:59:46;14.70;99.90
26954;DHT22;14508;50.924;11.600;2022-07-19T04:02:12;14.70;99.90
26954;DHT22;14508;50.924;11.600;2022-07-19T04:04:39;14.70;99.90
26954;DHT22;14508;50.924;11.600;2022-07-19T04:07:06;14.70;99.90
26954;DHT22;14508;50.924;11.600;2022-07-19T04:09:33;14.70;99.90
26954;DHT22;14508;50.924;11.600;2022-07-19T04:11:59;14.80;99.90
26954;DHT22;14508;50.924;11.600;2022-07-19T04:14:27;14.70;99.90
26954;DHT22;14508;50.924;11.600;2022-07-19T04:16:54;14.80;99.90
26954;DHT22;14508;50.924;11.600;2022-07-19T04:19:21;14.70;99.90
26954;DHT22;14508;50.924;11.600;2022-07-19T04:21:47;14.80;99.90
26954;DHT22;14508;50.924;11.600;2022-07-19T04:24:14;14.70;99.90
26954;DHT22;14508;50.924;11.600;2022-07-19T04:26:40;14.80;99.90
26954;DHT22;14508;50.924;11.600;2022-07-19T04:29:07;14.80;99.90
26954;DHT22;14508;50.924;11.600;2022-07-19T04:31:35;14.80;99.90
26954;DHT22;14508;50.924;11.600;2022-07-19T04:34:02;14.80;99.90
26954;DHT22;14508;50.924;11.600;2022-07-19T04:36:29;14.80;99.90
26954;DHT22;14508;50.924;11.600;2022-07-19T04:38:55;14.80;99.90
26954;DHT22;14508;50.924;11.600;2022-07-19T04:41:22;14.80;99.90
26954;DHT22;14508;50.924;11.600;2022-07-19T04:43:48;14.90;99.90
26954;DHT22;14508;50.924;11.600;2022-07-19T04:46:15;14.80;99.90
26954;DHT22;14508;50.924;11.600;2022-07-19T04:48:43;14.90;99.90
26954;DHT22;14508;50.924;11.600;2022-07-19T04:51:10;14.90;99.90
26954;DHT22;14508;50.924;11.600;2022-07-19T04:53:36;15.00;99.90
26954;DHT22;14508;50.924;11.600;2022-07-19T04:56:03;15.00;99.90
26954;DHT22;14508;50.924;11.600;2022-07-19T04:58:30;15.00;99.90
26954;DHT22;14508;50.924;11.600;2022-07-19T05:00:57;15.10;99.90
26954;DHT22;14508;50.924;11.600;2022-07-19T05:03:23;15.10;99.90
26954;DHT22;14508;50.924;11.600;2022-07-19T05:05:51;15.10;99.90
26954;DHT22;14508;50.924;11.600;2022-07-19T05:08:18;15.30;99.90
26954;DHT22;14508;50.924;11.600;2022-07-19T05:10:45;15.40;99.90
26954;DHT22;14508;50.924;11.600;2022-07-19T05:13:11;15.60;99.90
26954;DHT22;14508;50.924;11.600;2022-07-19T05:15:38;15.80;99.90
26954;DHT22;14508;50.924;11.600;2022-07-19T05:18:05;15.90;99.90
26954;DHT22;14508;50.924;11.600;2022-07-19T05:20:31;16.10;99.90
26954;DHT22;14508;50.924;11.600;2022-07-19T05:22:59;16.30;99.90
26954;DHT22;14508;50.924;11.600;2022-07-19T05:25:26;16.40;99.90
26954;DHT22;14508;50.924;11.600;2022-07-19T05:27:53;16.60;99.90
26954;DHT22;14508;50.924;11.600;2022-07-19T05:30:21;16.70;99.90
26954;DHT22;14508;50.924;11.600;2022-07-19T05:32:48;16.90;99.90
26954;DHT22;14508;50.924;11.600;2022-07-19T05:35:15;17.00;99.90
26954;DHT22;14508;50.924;11.600;2022-07-19T05:37:41;17.20;99.40
26954;DHT22;14508;50.924;11.600;2022-07-19T05:40:10;17.30;98.50
26954;DHT22;14508;50.924;11.600;2022-07-19T05:42:37;17.40;97.30
26954;DHT22;14508;50.924;11.600;2022-07-19T05:45:04;17.60;96.40
26954;DHT22;14508;50.924;11.600;2022-07-19T05:47:31;17.70;95.60
26954;DHT22;14508;50.924;11.600;2022-07-19T05:49:57;17.80;94.70
26954;DHT22;14508;50.924;11.600;2022-07-19T05:52:24;18.00;93.70
26954;DHT22;14508;50.924;11.600;2022-07-19T05:54:51;18.10;92.90
26954;DHT22;14508;50.924;11.600;2022-07-19T05:57:19;18.20;92.10
26954;DHT22;14508;50.924;11.600;2022-07-19T05:59:46;18.30;91.30
26954;DHT22;14508;50.924;11.600;2022-07-19T06:02:12;18.50;90.70
26954;DHT22;14508;50.924;11.600;2022-07-19T06:04:40;18.60;90.00
26954;DHT22;14508;50.924;11.600;2022-07-19T06:07:07;18.70;88.10
26954;DHT22;14508;50.924;11.600;2022-07-19T06:09:34;18.80;87.10
26954;DHT22;14508;50.924;11.600;2022-07-19T06:12:01;19.00;85.60
26954;DHT22;14508;50.924;11.600;2022-07-19T06:14:29;19.10;84.20
26954;DHT22;14508;50.924;11.600;2022-07-19T06:16:55;19.30;82.20
26954;DHT22;14508;50.924;11.600;2022-07-19T06:19:22;19.40;81.10
26954;DHT22;14508;50.924;11.600;2022-07-19T06:21:48;19.50;78.50
26954;DHT22;14508;50.924;11.600;2022-07-19T06:24:15;19.70;78.10
26954;DHT22;14508;50.924;11.600;2022-07-19T06:26:42;19.80;76.90
26954;DHT22;14508;50.924;11.600;2022-07-19T06:29:08;19.90;75.10
26954;DHT22;14508;50.924;11.600;2022-07-19T06:31:36;20.10;74.30
26954;DHT22;14508;50.924;11.600;2022-07-19T06:34:03;20.20;73.40
26954;DHT22;14508;50.924;11.600;2022-07-19T06:36:30;20.40;72.20
26954;DHT22;14508;50.924;11.600;2022-07-19T06:38:56;20.60;70.90
26954;DHT22;14508;50.924;11.600;2022-07-19T06:41:23;20.80;69.50
26954;DHT22;14508;50.924;11.600;2022-07-19T06:43:50;21.00;68.20
26954;DHT22;14508;50.924;11.600;2022-07-19T06:46:16;21.20;66.60
26954;DHT22;14508;50.924;11.600;2022-07-19T06:48:44;21.40;65.40
26954;DHT22;14508;50.924;11.600;2022-07-19T06:51:11;21.60;63.90
26954;DHT22;14508;50.924;11.600;2022-07-19T06:53:37;21.70;62.90
26954;DHT22;14508;50.924;11.600;2022-07-19T06:56:05;21.90;62.30
26954;DHT22;14508;50.924;11.600;2022-07-19T06:58:31;22.00;61.50
26954;DHT22;14508;50.924;11.600;2022-07-19T07:00:58;22.10;60.70
26954;DHT22;14508;50.924;11.600;2022-07-19T07:03:28;22.20;59.90
26954;DHT22;14508;50.924;11.600;2022-07-19T07:05:57;22.40;59.40
26954;DHT22;14508;50.924;11.600;2022-07-19T07:08:23;22.50;58.70
26954;DHT22;14508;50.924;11.600;2022-07-19T07:10:50;22.60;57.60
26954;DHT22;14508;50.924;11.600;2022-07-19T07:13:17;22.70;56.90
26954;DHT22;14508;50.924;11.600;2022-07-19T07:15:43;22.80;56.20
26954;DHT22;14508;50.924;11.600;2022-07-19T07:18:10;23.00;55.90
26954;DHT22;14508;50.924;11.600;2022-07-19T07:20:37;23.10;55.70
26954;DHT22;14508;50.924;11.600;2022-07-19T07:23:05;23.20;55.00
26954;DHT22;14508;50.924;11.600;2022-07-19T07:25:32;23.40;54.30
26954;DHT22;14508;50.924;11.600;2022-07-19T07:27:59;23.50;53.80
26954;DHT22;14508;50.924;11.600;2022-07-19T07:30:25;23.70;53.60
26954;DHT22;14508;50.924;11.600;2022-07-19T07:32:52;23.80;53.20
26954;DHT22;14508;50.924;11.600;2022-07-19T07:35:19;24.00;52.60
26954;DHT22;14508;50.924;11.600;2022-07-19T07:37:46;24.10;52.10
26954;DHT22;14508;50.924;11.600;2022-07-19T07:40:14;24.20;51.70
26954;DHT22;14508;50.924;11.600;2022-07-19T07:42:41;24.30;51.30
26954;DHT22;14508;50.924;11.600;2022-07-19T07:45:08;24.50;51.00
26954;DHT22;14508;50.924;11.600;2022-07-19T07:47:35;24.70;50.70
26954;DHT22;14508;50.924;11.600;2022-07-19T07:50:04;24.80;50.40
26954;DHT22;14508;50.924;11.600;2022-07-19T07:52:30;25.00;50.20
26954;DHT22;14508;50.924;11.600;2022-07-19T07:54:57;25.20;49.90
26954;DHT22;14508;50.924;11.600;2022-07-19T07:57:26;25.30;49.30
26954;DHT22;14508;50.924;11.600;2022-07-19T07:59:52;25.50;48.80
26954;DHT22;14508;50.924;11.600;2022-07-19T08:02:19;25.60;49.00
26954;DHT22;14508;50.924;11.600;2022-07-19T08:04:45;25.70;48.50
26954;DHT22;14508;50.924;11.600;2022-07-19T08:07:12;25.80;48.10
26954;DHT22;14508;50.924;11.600;2022-07-19T08:09:39;25.90;47.20
26954;DHT22;14508;50.924;11.600;2022-07-19T08:12:06;26.00;46.80
26954;DHT22;14508;50.924;11.600;2022-07-19T08:14:34;26.10;46.40
26954;DHT22;14508;50.924;11.600;2022-07-19T08:17:00;26.30;46.20
26954;DHT22;14508;50.924;11.600;2022-07-19T08:19:27;26.40;45.40
26954;DHT22;14508;50.924;11.600;2022-07-19T08:21:54;26.60;45.20
26954;DHT22;14508;50.924;11.600;2022-07-19T08:24:20;26.70;45.20
26954;DHT22;14508;50.924;11.600;2022-07-19T08:26:47;26.90;45.00
26954;DHT22;14508;50.924;11.600;2022-07-19T08:29:14;27.10;45.00
26954;DHT22;14508;50.924;11.600;2022-07-19T08:31:42;27.20;44.70
26954;DHT22;14508;50.924;11.600;2022-07-19T08:34:08;27.40;44.40
26954;DHT22;14508;50.924;11.600;2022-07-19T08:36:35;27.50;44.00
26954;DHT22;14508;50.924;11.600;2022-07-19T08:39:02;27.70;43.90
26954;DHT22;14508;50.924;11.600;2022-07-19T08:41:29;27.80;43.90
26954;DHT22;14508;50.924;11.600;2022-07-19T08:43:57;28.00;43.80
26954;DHT22;14508;50.924;11.600;2022-07-19T08:46:26;28.10;43.20
26954;DHT22;14508;50.924;11.600;2022-07-19T08:48:55;28.30;43.00
26954;DHT22;14508;50.924;11.600;2022-07-19T08:51:22;28.40;42.70
26954;DHT22;14508;50.924;11.600;2022-07-19T08:53:49;28.60;42.40
26954;DHT22;14508;50.924;11.600;2022-07-19T08:56:18;28.80;42.30
26954;DHT22;14508;50.924;11.600;2022-07-19T08:59:03;29.00;42.00
26954;DHT22;14508;50.924;11.600;2022-07-19T09:01:30;29.20;41.40
26954;DHT22;14508;50.924;11.600;2022-07-19T09:04:07;29.30;40.20
26954;DHT22;14508;50.924;11.600;2022-07-19T09:06:38;29.50;38.70
26954;DHT22;14508;50.924;11.600;2022-07-19T09:09:06;29.70;38.00
26954;DHT22;14508;50.924;11.600;2022-07-19T09:11:35;29.90;37.50
26954;DHT22;14508;50.924;11.600;2022-07-19T09:14:07;30.10;36.80
26954;DHT22;14508;50.924;11.600;2022-07-19T09:16:48;30.30;36.20
26954;DHT22;14508;50.924;11.600;2022-07-19T09:19:17;30.40;35.50
26954;DHT22;14508;50.924;11.600;2022-07-19T09:21:55;30.60;33.80
26954;DHT22;14508;50.924;11.600;2022-07-19T09:24:23;30.70;33.50
26954;DHT22;14508;50.924;11.600;2022-07-19T09:26:58;30.80;33.70
26954;DHT22;14508;50.924;11.600;2022-07-19T09:29:27;31.00;33.40
26954;DHT22;14508;50.924;11.600;2022-07-19T09:32:04;31.10;32.90
26954;DHT22;14508;50.924;11.600;2022-07-19T09:34:34;31.20;32.70
26954;DHT22;14508;50.924;11.600;2022-07-19T09:37:16;31.30;33.00
26954;DHT22;14508;50.924;11.600;2022-07-19T09:39:44;31.40;32.20
26954;DHT22;14508;50.924;11.600;2022-07-19T09:42:13;31.60;32.10
26954;DHT22;14508;50.924;11.600;2022-07-19T09:44:40;31.70;32.10
26954;DHT22;14508;50.924;11.600;2022-07-19T09:47:07;31.80;32.00
26954;DHT22;14508;50.924;11.600;2022-07-19T09:49:36;31.90;31.80
26954;DHT22;14508;50.924;11.600;2022-07-19T09:52:03;32.00;31.40
26954;DHT22;14508;50.924;11.600;2022-07-19T09:54:30;32.20;31.40
26954;DHT22;14508;50.924;11.600;2022-07-19T09:56:58;32.20;30.90
26954;DHT22;14508;50.924;11.600;2022-07-19T09:59:26;32.30;31.00
26954;DHT22;14508;50.924;11.600;2022-07-19T10:01:55;32.30;31.00
26954;DHT22;14508;50.924;11.600;2022-07-19T10:04:23;32.40;31.60
26954;DHT22;14508;50.924;11.600;2022-07-19T10:06:52;32.50;31.00
26954;DHT22;14508;50.924;11.600;2022-07-19T10:09:21;32.60;31.10
26954;DHT22;14508;50.924;11.600;2022-07-19T10:11:48;32.70;30.80
26954;DHT22;14508;50.924;11.600;2022-07-19T10:14:15;32.70;30.60
26954;DHT22;14508;50.924;11.600;2022-07-19T10:16:56;32.70;30.50
26954;DHT22;14508;50.924;11.600;2022-07-19T10:19:35;32.70;30.30
26954;DHT22;14508;50.924;11.600;2022-07-19T10:22:06;32.80;30.20
26954;DHT22;14508;50.924;11.600;2022-07-19T10:24:49;32.80;30.10
26954;DHT22;14508;50.924;11.600;2022-07-19T10:27:19;32.90;30.40
26954;DHT22;14508;50.924;11.600;2022-07-19T10:30:16;33.00;30.20
26954;DHT22;14508;50.924;11.600;2022-07-19T10:32:45;33.10;30.10
26954;DHT22;14508;50.924;11.600;2022-07-19T10:35:16;33.10;30.00
26954;DHT22;14508;50.924;11.600;2022-07-19T10:37:45;33.10;30.00
26954;DHT22;14508;50.924;11.600;2022-07-19T10:40:13;33.20;30.10
26954;DHT22;14508;50.924;11.600;2022-07-19T10:43:04;33.30;30.00
26954;DHT22;14508;50.924;11.600;2022-07-19T10:45:32;33.30;29.90
26954;DHT22;14508;50.924;11.600;2022-07-19T10:50:57;33.40;29.70
26954;DHT22;14508;50.924;11.600;2022-07-19T10:56:40;33.40;29.80
26954;DHT22;14508;50.924;11.600;2022-07-19T10:59:08;33.40;29.70
26954;DHT22;14508;50.924;11.600;2022-07-19T11:01:37;33.40;29.50
26954;DHT22;14508;50.924;11.600;2022-07-19T11:04:27;33.50;29.50
26954;DHT22;14508;50.924;11.600;2022-07-19T11:07:18;33.40;29.50
26954;DHT22;14508;50.924;11.600;2022-07-19T11:09:51;33.50;29.50
26954;DHT22;14508;50.924;11.600;2022-07-19T11:12:30;33.50;29.50
26954;DHT22;14508;50.924;11.600;2022-07-19T11:14:59;33.60;29.30
26954;DHT22;14508;50.924;11.600;2022-07-19T11:17:26;33.70;29.30
26954;DHT22;14508;50.924;11.600;2022-07-19T11:19:57;33.80;29.40
26954;DHT22;14508;50.924;11.600;2022-07-19T11:22:24;33.80;29.40
26954;DHT22;14508;50.924;11.600;2022-07-19T11:24:51;33.90;29.00
26954;DHT22;14508;50.924;11.600;2022-07-19T11:27:18;34.00;29.10
26954;DHT22;14508;50.924;11.600;2022-07-19T11:29:56;34.00;29.00
26954;DHT22;14508;50.924;11.600;2022-07-19T11:32:23;34.10;29.10
26954;DHT22;14508;50.924;11.600;2022-07-19T11:34:55;34.10;29.10
26954;DHT22;14508;50.924;11.600;2022-07-19T11:37:27;34.10;29.20
26954;DHT22;14508;50.924;11.600;2022-07-19T11:39:54;34.10;29.00
26954;DHT22;14508;50.924;11.600;2022-07-19T11:42:36;34.10;28.90
26954;DHT22;14508;50.924;11.600;2022-07-19T11:45:12;34.30;29.20
26954;DHT22;14508;50.924;11.600;2022-07-19T11:47:44;34.30;29.10
26954;DHT22;14508;50.924;11.600;2022-07-19T11:50:12;34.40;28.50
26954;DHT22;14508;50.924;11.600;2022-07-19T11:52:47;34.40;28.40
26954;DHT22;14508;50.924;11.600;2022-07-19T11:55:14;34.40;28.50
26954;DHT22;14508;50.924;11.600;2022-07-19T11:57:42;34.50;28.40
26954;DHT22;14508;50.924;11.600;2022-07-19T12:00:12;34.50;28.30
26954;DHT22;14508;50.924;11.600;2022-07-19T12:02:56;34.60;28.20
26954;DHT22;14508;50.924;11.600;2022-07-19T12:05:24;34.60;27.90
26954;DHT22;14508;50.924;11.600;2022-07-19T12:07:52;34.60;28.10
26954;DHT22;14508;50.924;11.600;2022-07-19T12:10:42;34.60;27.90
26954;DHT22;14508;50.924;11.600;2022-07-19T12:13:10;34.50;27.90
26954;DHT22;14508;50.924;11.600;2022-07-19T12:15:47;34.60;27.70
26954;DHT22;14508;50.924;11.600;2022-07-19T12:18:14;34.60;27.60
26954;DHT22;14508;50.924;11.600;2022-07-19T12:20:42;34.70;27.70
26954;DHT22;14508;50.924;11.600;2022-07-19T12:23:14;34.70;27.50
26954;DHT22;14508;50.924;11.600;2022-07-19T12:25:42;34.80;27.60
26954;DHT22;14508;50.924;11.600;2022-07-19T12:28:09;34.70;27.40
26954;DHT22;14508;50.924;11.600;2022-07-19T12:30:36;34.70;27.40
26954;DHT22;14508;50.924;11.600;2022-07-19T12:33:09;34.70;27.60
26954;DHT22;14508;50.924;11.600;2022-07-19T12:35:44;34.70;27.70
26954;DHT22;14508;50.924;11.600;2022-07-19T12:38:11;34.70;27.60
26954;DHT22;14508;50.924;11.600;2022-07-19T12:40:39;34.80;27.70
26954;DHT22;14508;50.924;11.600;2022-07-19T12:43:06;34.80;27.50
26954;DHT22;14508;50.924;11.600;2022-07-19T12:45:39;34.80;27.10
26954;DHT22;14508;50.924;11.600;2022-07-19T12:48:10;34.80;27.00
26954;DHT22;14508;50.924;11.600;2022-07-19T12:50:39;34.80;27.00
26954;DHT22;14508;50.924;11.600;2022-07-19T12:53:08;34.80;27.00
26954;DHT22;14508;50.924;11.600;2022-07-19T12:55:36;34.90;26.90
26954;DHT22;14508;50.924;11.600;2022-07-19T12:58:05;34.90;26.80
26954;DHT22;14508;50.924;11.600;2022-07-19T13:00:33;34.90;27.00
26954;DHT22;14508;50.924;11.600;2022-07-19T13:03:01;34.90;27.20
26954;DHT22;14508;50.924;11.600;2022-07-19T13:05:30;34.90;27.50
26954;DHT22;14508;50.924;11.600;2022-07-19T13:07:57;34.90;27.50
26954;DHT22;14508;50.924;11.600;2022-07-19T13:10:24;34.90;27.40
26954;DHT22;14508;50.924;11.600;2022-07-19T13:12:51;35.00;27.30
26954;DHT22;14508;50.924;11.600;2022-07-19T13:15:18;35.00;27.30
26954;DHT22;14508;50.924;11.600;2022-07-19T13:17:44;35.10;27.50
26954;DHT22;14508;50.924;11.600;2022-07-19T13:20:13;35.10;27.40
26954;DHT22;14508;50.924;11.600;2022-07-19T13:22:41;35.20;27.30
26954;DHT22;14508;50.924;11.600;2022-07-19T13:25:09;35.30;27.30
26954;DHT22;14508;50.924;11.600;2022-07-19T13:27:36;35.20;27.20
26954;DHT22;14508;50.924;11.600;2022-07-19T13:30:04;35.30;27.30
26954;DHT22;14508;50.924;11.600;2022-07-19T13:32:30;35.30;26.90
26954;DHT22;14508;50.924;11.600;2022-07-19T13:34:57;35.40;26.90
26954;DHT22;14508;50.924;11.600;2022-07-19T13:37:24;35.40;27.00
26954;DHT22;14508;50.924;11.600;2022-07-19T13:39:52;35.40;27.10
26954;DHT22;14508;50.924;11.600;2022-07-19T13:42:18;35.50;26.40
26954;DHT22;14508;50.924;11.600;2022-07-19T13:44:45;35.50;26.60
26954;DHT22;14508;50.924;11.600;2022-07-19T13:47:12;35.50;26.80
26954;DHT22;14508;50.924;11.600;2022-07-19T13:49:38;35.50;26.80
26954;DHT22;14508;50.924;11.600;2022-07-19T13:52:05;35.60;26.90
26954;DHT22;14508;50.924;11.600;2022-07-19T13:54:32;35.60;27.00
26954;DHT22;14508;50.924;11.600;2022-07-19T13:57:00;35.60;27.30
26954;DHT22;14508;50.924;11.600;2022-07-19T13:59:27;35.60;27.20
26954;DHT22;14508;50.924;11.600;2022-07-19T14:01:55;35.70;26.70
26954;DHT22;14508;50.924;11.600;2022-07-19T14:04:22;35.70;26.70
26954;DHT22;14508;50.924;11.600;2022-07-19T14:06:49;35.70;26.60
26954;DHT22;14508;50.924;11.600;2022-07-19T14:09:15;35.70;26.70
26954;DHT22;14508;50.924;11.600;2022-07-19T14:11:42;35.70;26.70
26954;DHT22;14508;50.924;11.600;2022-07-19T14:14:11;35.70;26.60
26954;DHT22;14508;50.924;11.600;2022-07-19T14:16:38;35.70;26.50
26954;DHT22;14508;50.924;11.600;2022-07-19T14:19:05;35.80;27.00
26954;DHT22;14508;50.924;11.600;2022-07-19T14:21:32;35.70;26.50
26954;DHT22;14508;50.924;11.600;2022-07-19T14:24:00;35.80;26.70
26954;DHT22;14508;50.924;11.600;2022-07-19T14:26:26;35.80;26.40
26954;DHT22;14508;50.924;11.600;2022-07-19T14:28:53;35.80;26.40
26954;DHT22;14508;50.924;11.600;2022-07-19T14:31:21;35.80;26.30
26954;DHT22;14508;50.924;11.600;2022-07-19T14:33:48;35.80;26.30
26954;DHT22;14508;50.924;11.600;2022-07-19T14:36:14;35.80;26.40
26954;DHT22;14508;50.924;11.600;2022-07-19T14:38:41;35.80;26.40
26954;DHT22;14508;50.924;11.600;2022-07-19T14:41:08;35.80;26.40
26954;DHT22;14508;50.924;11.600;2022-07-19T14:43:35;35.80;26.20
26954;DHT22;14508;50.924;11.600;2022-07-19T14:46:01;35.80;26.10
26954;DHT22;14508;50.924;11.600;2022-07-19T14:48:29;35.80;26.30
26954;DHT22;14508;50.924;11.600;2022-07-19T14:50:56;35.90;26.40
26954;DHT22;14508;50.924;11.600;2022-07-19T14:53:23;35.90;26.40
26954;DHT22;14508;50.924;11.600;2022-07-19T14:55:49;36.00;26.40
26954;DHT22;14508;50.924;11.600;2022-07-19T14:58:16;36.00;26.70
26954;DHT22;14508;50.924;11.600;2022-07-19T15:00:43;36.10;26.50
26954;DHT22;14508;50.924;11.600;2022-07-19T15:03:09;36.10;26.50
26954;DHT22;14508;50.924;11.600;2022-07-19T15:05:37;36.10;26.50
26954;DHT22;14508;50.924;11.600;2022-07-19T15:08:04;36.20;26.60
26954;DHT22;14508;50.924;11.600;2022-07-19T15:10:31;36.20;26.20
26954;DHT22;14508;50.924;11.600;2022-07-19T15:12:57;36.20;26.30
26954;DHT22;14508;50.924;11.600;2022-07-19T15:15:24;36.30;26.40
26954;DHT22;14508;50.924;11.600;2022-07-19T15:17:51;36.30;25.90
26954;DHT22;14508;50.924;11.600;2022-07-19T15:20:18;36.30;25.90
26954;DHT22;14508;50.924;11.600;2022-07-19T15:22:48;36.40;26.00
26954;DHT22;14508;50.924;11.600;2022-07-19T15:25:15;36.50;26.20
26954;DHT22;14508;50.924;11.600;2022-07-19T15:27:44;36.60;26.00
26954;DHT22;14508;50.924;11.600;2022-07-19T15:30:15;36.70;26.00